sensor_id;sensor_type;location;lat;lon;timestamp;P1;durP1;ratioP1;P2;durP2;ratioP2
64966;SDS011;51710;38.732;-121.358;2023-02-03T00:01:22;7.15;;;4.63;;
64966;SDS011;51710;38.732;-121.358;2023-02-03T00:03:49;10.50;;;4.72;;
64966;SDS011;51710;38.732;-121.358;2023-02-03T00:06:15;9.85;;;5.05;;
64966;SDS011;51710;38.732;-121.358;2023-02-03T00:08:45;8.68;;;4.30;;
64966;SDS011;51710;38.732;-121.358;2023-02-03T00:11:12;9.18;;;4.38;;
64966;SDS011;51710;38.732;-121.358;2023-02-03T00:13:38;8.23;;;4.47;;
64966;SDS011;51710;38.732;-121.358;2023-02-03T00:16:05;7.82;;;4.60;;
64966;SDS011;51710;38.732;-121.358;2023-02-03T00:18:32;6.43;;;4.05;;
64966;SDS011;51710;38.732;-121.358;2023-02-03T00:20:58;7.35;;;4.40;;
64966;SDS011;51710;38.732;-121.358;2023-02-03T00:23:25;8.73;;;4.20;;
64966;SDS011;51710;38.732;-121.358;2023-02-03T00:25:54;6.57;;;4.13;;
64966;SDS011;51710;38.732;-121.358;2023-02-03T00:28:20;5.88;;;3.38;;
64966;SDS011;51710;38.732;-121.358;2023-02-03T00:30:47;6.88;;;3.90;;
64966;SDS011;51710;38.732;-121.358;2023-02-03T00:33:13;6.75;;;4.55;;
64966;SDS011;51710;38.732;-121.358;2023-02-03T00:35:39;7.35;;;4.30;;
64966;SDS011;51710;38.732;-121.358;2023-02-03T00:38:06;5.88;;;3.83;;
64966;SDS011;51710;38.732;-121.358;2023-02-03T00:40:32;7.88;;;4.45;;
64966;SDS011;51710;38.732;-121.358;2023-02-03T00:42:58;7.32;;;3.83;;
64966;SDS011;51710;38.732;-121.358;2023-02-03T00:45:25;11.48;;;5.05;;
64966;SDS011;51710;38.732;-121.358;2023-02-03T00:47:51;8.43;;;4.07;;
64966;SDS011;51710;38.732;-121.358;2023-02-03T00:50:18;7.05;;;4.35;;
64966;SDS011;51710;38.732;-121.358;2023-02-03T00:52:44;10.82;;;3.75;;
64966;SDS011;51710;38.732;-121.358;2023-02-03T00:55:11;7.88;;;4.28;;
64966;SDS011;51710;38.732;-121.358;2023-02-03T00:57:37;6.65;;;3.80;;
64966;SDS011;51710;38.732;-121.358;2023-02-03T01:00:03;7.57;;;4.20;;
64966;SDS011;51710;38.732;-121.358;2023-02-03T01:02:30;6.60;;;3.70;;
64966;SDS011;51710;38.732;-121.358;2023-02-03T01:04:57;8.20;;;4.65;;
64966;SDS011;51710;38.732;-121.358;2023-02-03T01:07:23;9.02;;;3.80;;
64966;SDS011;51710;38.732;-121.358;2023-02-03T01:09:49;8.05;;;4.15;;
64966;SDS011;51710;38.732;-121.358;2023-02-03T01:12:16;8.27;;;3.70;;
64966;SDS011;51710;38.732;-121.358;2023-02-03T01:14:42;8.35;;;4.10;;
64966;SDS011;51710;38.732;-121.358;2023-02-03T01:17:08;6.60;;;3.95;;
64966;SDS011;51710;38.732;-121.358;2023-02-03T01:19:35;6.75;;;4.28;;
64966;SDS011;51710;38.732;-121.358;2023-02-03T01:22:01;13.65;;;5.72;;
64966;SDS011;51710;38.732;-121.358;2023-02-03T01:24:28;8.18;;;4.00;;
64966;SDS011;51710;38.732;-121.358;2023-02-03T01:26:55;7.57;;;3.88;;
64966;SDS011;51710;38.732;-121.358;2023-02-03T01:29:21;7.70;;;4.20;;
64966;SDS011;51710;38.732;-121.358;2023-02-03T01:31:49;7.20;;;4.35;;
64966;SDS011;51710;38.732;-121.358;2023-02-03T01:34:15;9.23;;;4.57;;
64966;SDS011;51710;38.732;-121.358;2023-02-03T01:36:42;11.02;;;4.88;;
64966;SDS011;51710;38.732;-121.358;2023-02-03T01:39:11;8.88;;;5.18;;
64966;SDS011;51710;38.732;-121.358;2023-02-03T01:41:37;10.40;;;5.70;;
64966;SDS011;51710;38.732;-121.358;2023-02-03T01:46:59;7.03;;;5.15;;
64966;SDS011;51710;38.732;-121.358;2023-02-03T01:49:33;9.27;;;5.47;;
64966;SDS011;51710;38.732;-121.358;2023-02-03T01:52:02;10.00;;;5.15;;
64966;SDS011;51710;38.732;-121.358;2023-02-03T01:54:30;9.88;;;5.20;;
64966;SDS011;51710;38.732;-121.358;2023-02-03T01:57:02;8.27;;;5.50;;
64966;SDS011;51710;38.732;-121.358;2023-02-03T01:59:32;8.27;;;4.65;;
64966;SDS011;51710;38.732;-121.358;2023-02-03T02:02:00;11.40;;;5.40;;
64966;SDS011;51710;38.732;-121.358;2023-02-03T02:04:33;9.90;;;5.15;;
64966;SDS011;51710;38.732;-121.358;2023-02-03T02:07:08;10.18;;;5.32;;
64966;SDS011;51710;38.732;-121.358;2023-02-03T02:09:35;8.93;;;5.82;;
64966;SDS011;51710;38.732;-121.358;2023-02-03T02:12:02;11.10;;;5.95;;
64966;SDS011;51710;38.732;-121.358;2023-02-03T02:14:28;9.35;;;5.38;;
64966;SDS011;51710;38.732;-121.358;2023-02-03T02:17:03;10.15;;;5.47;;
64966;SDS011;51710;38.732;-121.358;2023-02-03T02:28:58;9.77;;;5.88;;
64966;SDS011;51710;38.732;-121.358;2023-02-03T02:37:37;13.82;;;7.43;;
64966;SDS011;51710;38.732;-121.358;2023-02-03T02:42:59;17.98;;;8.18;;
64966;SDS011;51710;38.732;-121.358;2023-02-03T02:45:53;12.20;;;7.70;;
64966;SDS011;51710;38.732;-121.358;2023-02-03T02:48:31;13.40;;;7.13;;
64966;SDS011;51710;38.732;-121.358;2023-02-03T02:51:05;18.40;;;8.10;;
64966;SDS011;51710;38.732;-121.358;2023-02-03T02:53:35;14.07;;;7.95;;
64966;SDS011;51710;38.732;-121.358;2023-02-03T02:56:08;15.48;;;7.90;;
64966;SDS011;51710;38.732;-121.358;2023-02-03T02:58:38;13.35;;;8.63;;
64966;SDS011;51710;38.732;-121.358;2023-02-03T03:01:07;17.95;;;9.55;;
64966;SDS011;51710;38.732;-121.358;2023-02-03T03:03:34;35.47;;;18.27;;
64966;SDS011;51710;38.732;-121.358;2023-02-03T03:06:06;38.58;;;16.90;;
64966;SDS011;51710;38.732;-121.358;2023-02-03T03:08:47;37.83;;;17.92;;
64966;SDS011;51710;38.732;-121.358;2023-02-03T03:11:19;62.25;;;21.85;;
64966;SDS011;51710;38.732;-121.358;2023-02-03T03:13:48;79.13;;;25.92;;
64966;SDS011;51710;38.732;-121.358;2023-02-03T03:16:19;127.60;;;77.43;;
64966;SDS011;51710;38.732;-121.358;2023-02-03T03:18:54;31.73;;;23.00;;
64966;SDS011;51710;38.732;-121.358;2023-02-03T03:21:31;30.70;;;22.88;;
64966;SDS011;51710;38.732;-121.358;2023-02-03T03:24:07;36.13;;;25.27;;
64966;SDS011;51710;38.732;-121.358;2023-02-03T03:29:14;18.17;;;11.18;;
64966;SDS011;51710;38.732;-121.358;2023-02-03T03:31:47;12.07;;;7.45;;
64966;SDS011;51710;38.732;-121.358;2023-02-03T03:34:14;14.05;;;8.80;;
64966;SDS011;51710;38.732;-121.358;2023-02-03T03:36:46;17.75;;;9.63;;
64966;SDS011;51710;38.732;-121.358;2023-02-03T03:44:44;13.30;;;7.30;;
64966;SDS011;51710;38.732;-121.358;2023-02-03T03:47:29;9.52;;;7.00;;
64966;SDS011;51710;38.732;-121.358;2023-02-03T03:50:22;13.55;;;7.35;;
64966;SDS011;51710;38.732;-121.358;2023-02-03T03:52:56;13.05;;;7.57;;
64966;SDS011;51710;38.732;-121.358;2023-02-03T03:55:25;11.77;;;7.63;;
64966;SDS011;51710;38.732;-121.358;2023-02-03T03:58:02;16.80;;;9.90;;
64966;SDS011;51710;38.732;-121.358;2023-02-03T04:00:33;12.70;;;8.38;;
64966;SDS011;51710;38.732;-121.358;2023-02-03T04:03:04;16.58;;;8.95;;
64966;SDS011;51710;38.732;-121.358;2023-02-03T04:05:42;14.75;;;7.78;;
64966;SDS011;51710;38.732;-121.358;2023-02-03T04:08:09;14.05;;;7.63;;
64966;SDS011;51710;38.732;-121.358;2023-02-03T04:10:36;14.52;;;8.07;;
64966;SDS011;51710;38.732;-121.358;2023-02-03T04:13:05;12.60;;;7.97;;
64966;SDS011;51710;38.732;-121.358;2023-02-03T04:15:33;15.60;;;9.10;;
64966;SDS011;51710;38.732;-121.358;2023-02-03T04:18:00;18.10;;;8.07;;
64966;SDS011;51710;38.732;-121.358;2023-02-03T04:20:27;13.98;;;8.23;;
64966;SDS011;51710;38.732;-121.358;2023-02-03T04:22:54;17.30;;;8.80;;
64966;SDS011;51710;38.732;-121.358;2023-02-03T04:25:21;15.73;;;8.95;;
64966;SDS011;51710;38.732;-121.358;2023-02-03T04:27:48;15.38;;;9.27;;
64966;SDS011;51710;38.732;-121.358;2023-02-03T04:30:14;16.98;;;8.40;;
64966;SDS011;51710;38.732;-121.358;2023-02-03T04:32:43;14.55;;;8.20;;
64966;SDS011;51710;38.732;-121.358;2023-02-03T04:35:10;13.15;;;8.48;;
64966;SDS011;51710;38.732;-121.358;2023-02-03T04:37:37;15.57;;;9.00;;
64966;SDS011;51710;38.732;-121.358;2023-02-03T04:40:03;13.68;;;8.25;;
64966;SDS011;51710;38.732;-121.358;2023-02-03T04:42:30;12.77;;;8.23;;
64966;SDS011;51710;38.732;-121.358;2023-02-03T04:44:57;13.27;;;8.40;;
64966;SDS011;51710;38.732;-121.358;2023-02-03T04:47:23;13.15;;;8.13;;
64966;SDS011;51710;38.732;-121.358;2023-02-03T04:49:49;14.77;;;7.78;;
64966;SDS011;51710;38.732;-121.358;2023-02-03T04:52:16;13.80;;;8.23;;
64966;SDS011;51710;38.732;-121.358;2023-02-03T04:54:42;12.57;;;7.80;;
64966;SDS011;51710;38.732;-121.358;2023-02-03T04:57:08;15.88;;;8.43;;
64966;SDS011;51710;38.732;-121.358;2023-02-03T04:59:35;13.40;;;7.97;;
64966;SDS011;51710;38.732;-121.358;2023-02-03T05:02:02;12.82;;;7.90;;
64966;SDS011;51710;38.732;-121.358;2023-02-03T05:04:29;12.43;;;7.18;;
64966;SDS011;51710;38.732;-121.358;2023-02-03T05:06:55;12.40;;;7.20;;
64966;SDS011;51710;38.732;-121.358;2023-02-03T05:09:22;12.50;;;7.88;;
64966;SDS011;51710;38.732;-121.358;2023-02-03T05:11:49;11.63;;;7.45;;
64966;SDS011;51710;38.732;-121.358;2023-02-03T05:14:15;13.88;;;7.78;;
64966;SDS011;51710;38.732;-121.358;2023-02-03T05:16:42;13.88;;;7.57;;
64966;SDS011;51710;38.732;-121.358;2023-02-03T05:19:08;13.50;;;7.38;;
64966;SDS011;51710;38.732;-121.358;2023-02-03T05:21:35;12.57;;;7.32;;
64966;SDS011;51710;38.732;-121.358;2023-02-03T05:24:01;10.68;;;6.80;;
64966;SDS011;51710;38.732;-121.358;2023-02-03T05:26:31;12.80;;;6.85;;
64966;SDS011;51710;38.732;-121.358;2023-02-03T05:29:01;13.68;;;7.07;;
64966;SDS011;51710;38.732;-121.358;2023-02-03T05:31:27;12.02;;;7.25;;
64966;SDS011;51710;38.732;-121.358;2023-02-03T05:33:54;13.25;;;6.95;;
64966;SDS011;51710;38.732;-121.358;2023-02-03T05:36:20;10.73;;;6.90;;
64966;SDS011;51710;38.732;-121.358;2023-02-03T05:38:47;11.23;;;6.72;;
64966;SDS011;51710;38.732;-121.358;2023-02-03T05:41:13;11.75;;;7.13;;
64966;SDS011;51710;38.732;-121.358;2023-02-03T05:43:58;12.07;;;6.80;;
64966;SDS011;51710;38.732;-121.358;2023-02-03T05:46:25;15.43;;;7.03;;
64966;SDS011;51710;38.732;-121.358;2023-02-03T05:48:51;9.95;;;6.45;;
64966;SDS011;51710;38.732;-121.358;2023-02-03T05:51:18;10.13;;;6.38;;
64966;SDS011;51710;38.732;-121.358;2023-02-03T05:53:44;13.82;;;6.93;;
64966;SDS011;51710;38.732;-121.358;2023-02-03T05:56:10;10.45;;;6.43;;
64966;SDS011;51710;38.732;-121.358;2023-02-03T05:58:37;11.02;;;6.75;;
64966;SDS011;51710;38.732;-121.358;2023-02-03T06:01:03;12.38;;;7.07;;
64966;SDS011;51710;38.732;-121.358;2023-02-03T06:03:29;13.48;;;6.55;;
64966;SDS011;51710;38.732;-121.358;2023-02-03T06:05:56;11.07;;;6.35;;
64966;SDS011;51710;38.732;-121.358;2023-02-03T06:08:23;12.88;;;7.47;;
64966;SDS011;51710;38.732;-121.358;2023-02-03T06:11:01;13.63;;;6.80;;
64966;SDS011;51710;38.732;-121.358;2023-02-03T06:13:28;11.30;;;6.57;;
64966;SDS011;51710;38.732;-121.358;2023-02-03T06:15:54;11.38;;;6.55;;
64966;SDS011;51710;38.732;-121.358;2023-02-03T06:18:21;13.57;;;7.22;;
64966;SDS011;51710;38.732;-121.358;2023-02-03T06:20:48;14.98;;;6.60;;
64966;SDS011;51710;38.732;-121.358;2023-02-03T06:23:15;13.68;;;7.68;;
64966;SDS011;51710;38.732;-121.358;2023-02-03T06:25:43;16.38;;;7.63;;
64966;SDS011;51710;38.732;-121.358;2023-02-03T06:28:13;12.85;;;7.18;;
64966;SDS011;51710;38.732;-121.358;2023-02-03T06:30:41;12.75;;;7.63;;
64966;SDS011;51710;38.732;-121.358;2023-02-03T06:33:07;16.00;;;8.18;;
64966;SDS011;51710;38.732;-121.358;2023-02-03T06:35:34;12.50;;;7.60;;
64966;SDS011;51710;38.732;-121.358;2023-02-03T06:38:00;14.63;;;8.10;;
64966;SDS011;51710;38.732;-121.358;2023-02-03T06:40:26;14.73;;;8.38;;
64966;SDS011;51710;38.732;-121.358;2023-02-03T06:42:53;15.05;;;8.52;;
64966;SDS011;51710;38.732;-121.358;2023-02-03T06:45:19;19.05;;;8.35;;
64966;SDS011;51710;38.732;-121.358;2023-02-03T06:47:46;12.70;;;8.40;;
64966;SDS011;51710;38.732;-121.358;2023-02-03T06:50:13;16.10;;;9.15;;
64966;SDS011;51710;38.732;-121.358;2023-02-03T06:52:40;16.38;;;9.48;;
64966;SDS011;51710;38.732;-121.358;2023-02-03T06:55:07;15.10;;;9.32;;
64966;SDS011;51710;38.732;-121.358;2023-02-03T06:57:35;16.33;;;9.80;;
64966;SDS011;51710;38.732;-121.358;2023-02-03T07:00:07;18.20;;;10.48;;
64966;SDS011;51710;38.732;-121.358;2023-02-03T07:02:34;16.85;;;10.88;;
64966;SDS011;51710;38.732;-121.358;2023-02-03T07:05:00;16.83;;;9.43;;
64966;SDS011;51710;38.732;-121.358;2023-02-03T07:07:27;16.50;;;9.68;;
64966;SDS011;51710;38.732;-121.358;2023-02-03T07:09:54;15.75;;;9.05;;
64966;SDS011;51710;38.732;-121.358;2023-02-03T07:12:20;15.30;;;8.77;;
64966;SDS011;51710;38.732;-121.358;2023-02-03T07:14:47;15.25;;;8.63;;
64966;SDS011;51710;38.732;-121.358;2023-02-03T07:17:13;16.55;;;9.73;;
64966;SDS011;51710;38.732;-121.358;2023-02-03T07:19:40;17.35;;;10.48;;
64966;SDS011;51710;38.732;-121.358;2023-02-03T07:22:07;14.43;;;9.38;;
64966;SDS011;51710;38.732;-121.358;2023-02-03T07:24:35;15.95;;;9.15;;
64966;SDS011;51710;38.732;-121.358;2023-02-03T07:27:01;24.35;;;10.95;;
64966;SDS011;51710;38.732;-121.358;2023-02-03T07:29:28;15.90;;;10.32;;
64966;SDS011;51710;38.732;-121.358;2023-02-03T07:31:54;16.48;;;10.35;;
64966;SDS011;51710;38.732;-121.358;2023-02-03T07:34:21;21.25;;;11.70;;
64966;SDS011;51710;38.732;-121.358;2023-02-03T07:36:48;18.75;;;11.18;;
64966;SDS011;51710;38.732;-121.358;2023-02-03T07:39:14;16.77;;;10.25;;
64966;SDS011;51710;38.732;-121.358;2023-02-03T07:41:40;18.48;;;9.40;;
64966;SDS011;51710;38.732;-121.358;2023-02-03T07:44:07;18.38;;;10.50;;
64966;SDS011;51710;38.732;-121.358;2023-02-03T07:46:33;17.92;;;10.75;;
64966;SDS011;51710;38.732;-121.358;2023-02-03T07:49:04;16.27;;;10.23;;
64966;SDS011;51710;38.732;-121.358;2023-02-03T07:51:30;20.38;;;10.90;;
64966;SDS011;51710;38.732;-121.358;2023-02-03T07:53:57;17.73;;;10.85;;
64966;SDS011;51710;38.732;-121.358;2023-02-03T07:56:23;16.40;;;10.48;;
64966;SDS011;51710;38.732;-121.358;2023-02-03T07:58:52;18.30;;;11.00;;
64966;SDS011;51710;38.732;-121.358;2023-02-03T08:01:19;18.08;;;10.75;;
64966;SDS011;51710;38.732;-121.358;2023-02-03T08:03:45;18.00;;;11.35;;
64966;SDS011;51710;38.732;-121.358;2023-02-03T08:06:11;18.90;;;12.25;;
64966;SDS011;51710;38.732;-121.358;2023-02-03T08:08:38;20.42;;;10.98;;
64966;SDS011;51710;38.732;-121.358;2023-02-03T08:11:05;16.17;;;9.73;;
64966;SDS011;51710;38.732;-121.358;2023-02-03T08:13:32;18.40;;;10.27;;
64966;SDS011;51710;38.732;-121.358;2023-02-03T08:15:58;16.77;;;10.50;;
64966;SDS011;51710;38.732;-121.358;2023-02-03T08:18:25;17.27;;;10.95;;
64966;SDS011;51710;38.732;-121.358;2023-02-03T08:20:51;19.08;;;10.40;;
64966;SDS011;51710;38.732;-121.358;2023-02-03T08:23:18;18.63;;;10.30;;
64966;SDS011;51710;38.732;-121.358;2023-02-03T08:25:48;18.38;;;10.80;;
64966;SDS011;51710;38.732;-121.358;2023-02-03T08:28:16;17.42;;;9.98;;
64966;SDS011;51710;38.732;-121.358;2023-02-03T08:30:42;16.90;;;10.60;;
64966;SDS011;51710;38.732;-121.358;2023-02-03T08:33:09;17.63;;;10.05;;
64966;SDS011;51710;38.732;-121.358;2023-02-03T08:35:35;17.98;;;10.30;;
64966;SDS011;51710;38.732;-121.358;2023-02-03T08:38:03;19.67;;;10.75;;
64966;SDS011;51710;38.732;-121.358;2023-02-03T08:40:29;20.08;;;10.20;;
64966;SDS011;51710;38.732;-121.358;2023-02-03T08:42:56;22.92;;;11.63;;
64966;SDS011;51710;38.732;-121.358;2023-02-03T08:45:22;29.48;;;13.13;;
64966;SDS011;51710;38.732;-121.358;2023-02-03T08:47:48;24.00;;;12.70;;
64966;SDS011;51710;38.732;-121.358;2023-02-03T08:50:15;26.10;;;13.68;;
64966;SDS011;51710;38.732;-121.358;2023-02-03T08:52:41;28.60;;;14.02;;
64966;SDS011;51710;38.732;-121.358;2023-02-03T08:55:07;24.58;;;13.88;;
64966;SDS011;51710;38.732;-121.358;2023-02-03T08:57:34;23.85;;;12.52;;
64966;SDS011;51710;38.732;-121.358;2023-02-03T09:00:03;21.90;;;11.90;;
64966;SDS011;51710;38.732;-121.358;2023-02-03T09:02:30;22.73;;;11.05;;
64966;SDS011;51710;38.732;-121.358;2023-02-03T09:04:57;20.20;;;11.48;;
64966;SDS011;51710;38.732;-121.358;2023-02-03T09:07:23;18.10;;;9.70;;
64966;SDS011;51710;38.732;-121.358;2023-02-03T09:09:50;16.98;;;9.63;;
64966;SDS011;51710;38.732;-121.358;2023-02-03T09:12:16;17.48;;;9.75;;
64966;SDS011;51710;38.732;-121.358;2023-02-03T09:14:42;21.20;;;9.70;;
64966;SDS011;51710;38.732;-121.358;2023-02-03T09:17:09;24.65;;;10.32;;
64966;SDS011;51710;38.732;-121.358;2023-02-03T09:19:36;16.63;;;9.38;;
64966;SDS011;51710;38.732;-121.358;2023-02-03T09:22:03;15.65;;;8.65;;
64966;SDS011;51710;38.732;-121.358;2023-02-03T09:24:30;15.25;;;8.93;;
64966;SDS011;51710;38.732;-121.358;2023-02-03T09:26:56;16.98;;;9.05;;
64966;SDS011;51710;38.732;-121.358;2023-02-03T09:29:25;13.93;;;8.20;;
64966;SDS011;51710;38.732;-121.358;2023-02-03T09:31:51;15.43;;;8.23;;
64966;SDS011;51710;38.732;-121.358;2023-02-03T09:34:18;14.13;;;7.65;;
64966;SDS011;51710;38.732;-121.358;2023-02-03T09:36:45;15.98;;;8.63;;
64966;SDS011;51710;38.732;-121.358;2023-02-03T09:39:12;13.80;;;8.57;;
64966;SDS011;51710;38.732;-121.358;2023-02-03T09:44:55;13.18;;;8.00;;
64966;SDS011;51710;38.732;-121.358;2023-02-03T09:47:38;18.25;;;8.20;;
64966;SDS011;51710;38.732;-121.358;2023-02-03T09:50:28;13.57;;;7.72;;
64966;SDS011;51710;38.732;-121.358;2023-02-03T09:52:54;13.63;;;7.50;;
64966;SDS011;51710;38.732;-121.358;2023-02-03T09:58:05;14.13;;;8.32;;
64966;SDS011;51710;38.732;-121.358;2023-02-03T10:17:25;12.85;;;7.07;;
64966;SDS011;51710;38.732;-121.358;2023-02-03T10:20:00;11.68;;;6.65;;
64966;SDS011;51710;38.732;-121.358;2023-02-03T10:22:31;11.23;;;7.15;;
64966;SDS011;51710;38.732;-121.358;2023-02-03T10:25:15;9.77;;;6.05;;
64966;SDS011;51710;38.732;-121.358;2023-02-03T10:27:49;10.23;;;6.05;;
64966;SDS011;51710;38.732;-121.358;2023-02-03T10:30:24;11.02;;;6.28;;
64966;SDS011;51710;38.732;-121.358;2023-02-03T10:41:42;9.45;;;4.80;;
64966;SDS011;51710;38.732;-121.358;2023-02-03T10:44:08;9.73;;;4.70;;
64966;SDS011;51710;38.732;-121.358;2023-02-03T10:46:38;11.23;;;4.47;;
64966;SDS011;51710;38.732;-121.358;2023-02-03T10:49:08;7.20;;;4.22;;
64966;SDS011;51710;38.732;-121.358;2023-02-03T10:51:38;6.75;;;4.25;;
64966;SDS011;51710;38.732;-121.358;2023-02-03T10:54:25;6.75;;;3.28;;
64966;SDS011;51710;38.732;-121.358;2023-02-03T10:57:08;7.07;;;3.50;;
64966;SDS011;51710;38.732;-121.358;2023-02-03T10:59:40;7.65;;;3.33;;
64966;SDS011;51710;38.732;-121.358;2023-02-03T11:02:29;6.50;;;3.28;;
64966;SDS011;51710;38.732;-121.358;2023-02-03T11:05:16;5.07;;;2.60;;
64966;SDS011;51710;38.732;-121.358;2023-02-03T11:07:43;4.95;;;2.65;;
64966;SDS011;51710;38.732;-121.358;2023-02-03T11:13:40;6.25;;;2.67;;
64966;SDS011;51710;38.732;-121.358;2023-02-03T11:16:00;4.00;;;2.08;;
64966;SDS011;51710;38.732;-121.358;2023-02-03T11:21:25;3.33;;;1.85;;
64966;SDS011;51710;38.732;-121.358;2023-02-03T11:24:00;5.47;;;2.35;;
64966;SDS011;51710;38.732;-121.358;2023-02-03T11:27:03;5.47;;;2.22;;
64966;SDS011;51710;38.732;-121.358;2023-02-03T11:29:42;4.30;;;1.67;;
64966;SDS011;51710;38.732;-121.358;2023-02-03T11:32:28;3.72;;;1.98;;
64966;SDS011;51710;38.732;-121.358;2023-02-03T11:35:11;3.72;;;2.20;;
64966;SDS011;51710;38.732;-121.358;2023-02-03T11:37:43;3.47;;;1.85;;
64966;SDS011;51710;38.732;-121.358;2023-02-03T11:47:55;3.38;;;1.55;;
64966;SDS011;51710;38.732;-121.358;2023-02-03T11:53:15;1.75;;;1.10;;
64966;SDS011;51710;38.732;-121.358;2023-02-03T12:12:56;2.20;;;1.15;;
64966;SDS011;51710;38.732;-121.358;2023-02-03T12:15:42;2.78;;;1.10;;
64966;SDS011;51710;38.732;-121.358;2023-02-03T12:21:29;1.42;;;1.00;;
64966;SDS011;51710;38.732;-121.358;2023-02-03T12:29:02;1.88;;;0.80;;
64966;SDS011;51710;38.732;-121.358;2023-02-03T12:34:36;1.40;;;0.80;;
64966;SDS011;51710;38.732;-121.358;2023-02-03T12:37:20;2.78;;;0.82;;
64966;SDS011;51710;38.732;-121.358;2023-02-03T12:42:19;4.45;;;1.00;;
64966;SDS011;51710;38.732;-121.358;2023-02-03T12:45:19;2.95;;;1.10;;
64966;SDS011;51710;38.732;-121.358;2023-02-03T12:50:36;7.63;;;3.53;;
64966;SDS011;51710;38.732;-121.358;2023-02-03T12:53:32;5.47;;;3.08;;
64966;SDS011;51710;38.732;-121.358;2023-02-03T12:56:06;5.32;;;2.83;;
64966;SDS011;51710;38.732;-121.358;2023-02-03T12:58:38;4.75;;;2.28;;
64966;SDS011;51710;38.732;-121.358;2023-02-03T13:06:42;1.60;;;0.80;;
64966;SDS011;51710;38.732;-121.358;2023-02-03T13:12:24;1.77;;;0.80;;
64966;SDS011;51710;38.732;-121.358;2023-02-03T13:20:21;5.22;;;3.13;;
64966;SDS011;51710;38.732;-121.358;2023-02-03T13:22:50;7.78;;;4.22;;
64966;SDS011;51710;38.732;-121.358;2023-02-03T13:27:58;6.68;;;3.50;;
64966;SDS011;51710;38.732;-121.358;2023-02-03T13:38:47;8.50;;;4.47;;
64966;SDS011;51710;38.732;-121.358;2023-02-03T13:41:25;9.27;;;4.90;;
64966;SDS011;51710;38.732;-121.358;2023-02-03T13:44:09;9.98;;;6.20;;
64966;SDS011;51710;38.732;-121.358;2023-02-03T13:46:38;12.18;;;7.57;;
64966;SDS011;51710;38.732;-121.358;2023-02-03T13:49:05;16.02;;;9.43;;
64966;SDS011;51710;38.732;-121.358;2023-02-03T13:51:35;16.35;;;9.77;;
64966;SDS011;51710;38.732;-121.358;2023-02-03T13:54:12;20.73;;;11.70;;
64966;SDS011;51710;38.732;-121.358;2023-02-03T13:56:57;19.80;;;12.43;;
64966;SDS011;51710;38.732;-121.358;2023-02-03T14:04:58;25.63;;;14.60;;
64966;SDS011;51710;38.732;-121.358;2023-02-03T14:12:38;25.38;;;14.88;;
64966;SDS011;51710;38.732;-121.358;2023-02-03T14:15:22;22.98;;;14.52;;
64966;SDS011;51710;38.732;-121.358;2023-02-03T14:23:14;25.13;;;14.98;;
64966;SDS011;51710;38.732;-121.358;2023-02-03T14:25:47;24.83;;;15.35;;
64966;SDS011;51710;38.732;-121.358;2023-02-03T14:28:18;27.40;;;17.23;;
64966;SDS011;51710;38.732;-121.358;2023-02-03T14:38:57;24.35;;;15.70;;
64966;SDS011;51710;38.732;-121.358;2023-02-03T14:42:12;24.50;;;15.13;;
64966;SDS011;51710;38.732;-121.358;2023-02-03T14:47:44;23.85;;;14.50;;
64966;SDS011;51710;38.732;-121.358;2023-02-03T14:53:26;23.48;;;14.90;;
64966;SDS011;51710;38.732;-121.358;2023-02-03T14:59:47;26.25;;;14.98;;
64966;SDS011;51710;38.732;-121.358;2023-02-03T15:02:20;24.42;;;14.40;;
64966;SDS011;51710;38.732;-121.358;2023-02-03T15:04:50;24.90;;;13.60;;
64966;SDS011;51710;38.732;-121.358;2023-02-03T15:07:40;22.10;;;13.43;;
64966;SDS011;51710;38.732;-121.358;2023-02-03T15:10:17;24.65;;;14.15;;
64966;SDS011;51710;38.732;-121.358;2023-02-03T15:12:47;25.77;;;13.93;;
64966;SDS011;51710;38.732;-121.358;2023-02-03T15:15:19;24.50;;;14.77;;
64966;SDS011;51710;38.732;-121.358;2023-02-03T15:17:49;23.00;;;14.93;;
64966;SDS011;51710;38.732;-121.358;2023-02-03T15:20:25;29.02;;;14.65;;
64966;SDS011;51710;38.732;-121.358;2023-02-03T15:23:28;25.45;;;14.70;;
64966;SDS011;51710;38.732;-121.358;2023-02-03T15:26:09;23.20;;;14.77;;
64966;SDS011;51710;38.732;-121.358;2023-02-03T15:28:38;26.08;;;14.40;;
64966;SDS011;51710;38.732;-121.358;2023-02-03T15:31:47;21.85;;;13.73;;
64966;SDS011;51710;38.732;-121.358;2023-02-03T15:36:48;23.25;;;14.23;;
64966;SDS011;51710;38.732;-121.358;2023-02-03T15:39:26;24.50;;;14.90;;
64966;SDS011;51710;38.732;-121.358;2023-02-03T15:41:59;28.73;;;16.02;;
64966;SDS011;51710;38.732;-121.358;2023-02-03T15:44:31;25.27;;;15.55;;
64966;SDS011;51710;38.732;-121.358;2023-02-03T15:47:05;24.55;;;14.45;;
64966;SDS011;51710;38.732;-121.358;2023-02-03T15:49:50;23.45;;;14.40;;
64966;SDS011;51710;38.732;-121.358;2023-02-03T15:52:24;25.27;;;15.18;;
64966;SDS011;51710;38.732;-121.358;2023-02-03T15:54:57;24.67;;;14.88;;
64966;SDS011;51710;38.732;-121.358;2023-02-03T15:57:34;24.33;;;14.65;;
64966;SDS011;51710;38.732;-121.358;2023-02-03T16:00:23;27.35;;;15.07;;
64966;SDS011;51710;38.732;-121.358;2023-02-03T16:03:17;25.05;;;15.27;;
64966;SDS011;51710;38.732;-121.358;2023-02-03T16:05:47;27.40;;;15.23;;
64966;SDS011;51710;38.732;-121.358;2023-02-03T16:08:31;22.90;;;14.57;;
64966;SDS011;51710;38.732;-121.358;2023-02-03T16:11:04;29.52;;;15.52;;
64966;SDS011;51710;38.732;-121.358;2023-02-03T16:14:06;28.65;;;14.73;;
64966;SDS011;51710;38.732;-121.358;2023-02-03T16:16:44;28.58;;;17.38;;
64966;SDS011;51710;38.732;-121.358;2023-02-03T16:27:21;28.05;;;15.35;;
64966;SDS011;51710;38.732;-121.358;2023-02-03T16:36:11;25.65;;;14.38;;
64966;SDS011;51710;38.732;-121.358;2023-02-03T16:38:57;24.98;;;15.00;;
64966;SDS011;51710;38.732;-121.358;2023-02-03T16:41:45;27.10;;;15.80;;
64966;SDS011;51710;38.732;-121.358;2023-02-03T16:44:30;25.92;;;14.73;;
64966;SDS011;51710;38.732;-121.358;2023-02-03T16:47:20;25.38;;;14.35;;
64966;SDS011;51710;38.732;-121.358;2023-02-03T16:50:13;23.40;;;14.93;;
64966;SDS011;51710;38.732;-121.358;2023-02-03T16:52:59;22.08;;;13.45;;
64966;SDS011;51710;38.732;-121.358;2023-02-03T16:55:26;25.55;;;15.23;;
64966;SDS011;51710;38.732;-121.358;2023-02-03T16:57:52;24.48;;;14.90;;
64966;SDS011;51710;38.732;-121.358;2023-02-03T17:00:19;25.10;;;15.18;;
64966;SDS011;51710;38.732;-121.358;2023-02-03T17:02:49;24.42;;;14.00;;
64966;SDS011;51710;38.732;-121.358;2023-02-03T17:05:17;27.20;;;14.38;;
64966;SDS011;51710;38.732;-121.358;2023-02-03T17:07:43;28.33;;;14.40;;
64966;SDS011;51710;38.732;-121.358;2023-02-03T17:10:11;22.58;;;14.27;;
64966;SDS011;51710;38.732;-121.358;2023-02-03T17:12:38;21.80;;;13.50;;
64966;SDS011;51710;38.732;-121.358;2023-02-03T17:15:05;21.58;;;13.80;;
64966;SDS011;51710;38.732;-121.358;2023-02-03T17:17:33;22.17;;;14.10;;
64966;SDS011;51710;38.732;-121.358;2023-02-03T17:19:59;23.33;;;14.07;;
64966;SDS011;51710;38.732;-121.358;2023-02-03T17:22:26;22.95;;;13.38;;
64966;SDS011;51710;38.732;-121.358;2023-02-03T17:24:52;23.35;;;14.43;;